sensor_id;sensor_type;location;lat;lon;timestamp;pressure;altitude;pressure_sealevel;temperature
28305;BMP280;15569;42.652;23.040;2022-12-20T00:01:22;94590.09;;;3.92
28305;BMP280;15569;42.652;23.040;2022-12-20T00:03:50;94576.94;;;3.88
28305;BMP280;15569;42.652;23.040;2022-12-20T00:06:16;94580.03;;;3.79
28305;BMP280;15569;42.652;23.040;2022-12-20T00:08:41;94563.59;;;3.57
28305;BMP280;15569;42.652;23.040;2022-12-20T00:11:07;94583.25;;;3.78
28305;BMP280;15569;42.652;23.040;2022-12-20T00:13:34;94565.88;;;3.66
28305;BMP280;15569;42.652;23.040;2022-12-20T00:16:20;94584.91;;;3.81
28305;BMP280;15569;42.652;23.040;2022-12-20T00:18:49;94585.94;;;3.78
28305;BMP280;15569;42.652;23.040;2022-12-20T00:21:15;94597.72;;;3.62
28305;BMP280;15569;42.652;23.040;2022-12-20T00:23:40;94590.19;;;3.60
28305;BMP280;15569;42.652;23.040;2022-12-20T00:26:14;94598.59;;;3.38
28305;BMP280;15569;42.652;23.040;2022-12-20T00:28:41;94594.09;;;3.46
28305;BMP280;15569;42.652;23.040;2022-12-20T00:31:08;94594.69;;;3.39
28305;BMP280;15569;42.652;23.040;2022-12-20T00:33:35;94594.09;;;3.46
28305;BMP280;15569;42.652;23.040;2022-12-20T00:36:01;94597.41;;;3.52
28305;BMP280;15569;42.652;23.040;2022-12-20T00:38:27;94592.94;;;3.41
28305;BMP280;15569;42.652;23.040;2022-12-20T00:41:09;94580.50;;;3.25
28305;BMP280;15569;42.652;23.040;2022-12-20T00:43:36;94595.41;;;3.39
28305;BMP280;15569;42.652;23.040;2022-12-20T00:46:02;94591.38;;;3.01
28305;BMP280;15569;42.652;23.040;2022-12-20T00:48:29;94577.31;;;3.08
28305;BMP280;15569;42.652;23.040;2022-12-20T00:50:59;94593.88;;;3.12
28305;BMP280;15569;42.652;23.040;2022-12-20T00:53:24;94594.63;;;3.13
28305;BMP280;15569;42.652;23.040;2022-12-20T00:55:49;94582.13;;;3.15
28305;BMP280;15569;42.652;23.040;2022-12-20T00:58:15;94589.53;;;3.09
28305;BMP280;15569;42.652;23.040;2022-12-20T01:00:40;94595.19;;;3.06
28305;BMP280;15569;42.652;23.040;2022-12-20T01:03:06;94588.88;;;3.03
28305;BMP280;15569;42.652;23.040;2022-12-20T01:05:32;94592.16;;;2.96
28305;BMP280;15569;42.652;23.040;2022-12-20T01:07:57;94592.97;;;2.91
28305;BMP280;15569;42.652;23.040;2022-12-20T01:10:23;94581.03;;;3.05
28305;BMP280;15569;42.652;23.040;2022-12-20T01:12:48;94581.84;;;3.00
28305;BMP280;15569;42.652;23.040;2022-12-20T01:15:14;94583.78;;;2.86
28305;BMP280;15569;42.652;23.040;2022-12-20T01:17:40;94575.94;;;2.88
28305;BMP280;15569;42.652;23.040;2022-12-20T01:20:06;94570.63;;;2.83
28305;BMP280;15569;42.652;23.040;2022-12-20T01:22:31;94570.03;;;2.90
28305;BMP280;15569;42.652;23.040;2022-12-20T01:24:57;94563.59;;;2.80
28305;BMP280;15569;42.652;23.040;2022-12-20T01:27:22;94569.81;;;2.88
28305;BMP280;15569;42.652;23.040;2022-12-20T01:29:48;94557.84;;;2.70
28305;BMP280;15569;42.652;23.040;2022-12-20T01:32:13;94545.84;;;2.58
28305;BMP280;15569;42.652;23.040;2022-12-20T01:34:39;94555.56;;;2.61
28305;BMP280;15569;42.652;23.040;2022-12-20T01:37:04;94568.38;;;2.68
28305;BMP280;15569;42.652;23.040;2022-12-20T01:39:29;94559.88;;;2.64
28305;BMP280;15569;42.652;23.040;2022-12-20T01:41:55;94560.38;;;2.63
28305;BMP280;15569;42.652;23.040;2022-12-20T01:46:49;94560.06;;;2.53
28305;BMP280;15569;42.652;23.040;2022-12-20T01:51:50;94552.66;;;2.59
28305;BMP280;15569;42.652;23.040;2022-12-20T01:54:20;94560.06;;;2.53
28305;BMP280;15569;42.652;23.040;2022-12-20T01:56:52;94553.75;;;2.51
28305;BMP280;15569;42.652;23.040;2022-12-20T01:59:19;94553.78;;;2.45
28305;BMP280;15569;42.652;23.040;2022-12-20T02:01:45;94558.25;;;2.61
28305;BMP280;15569;42.652;23.040;2022-12-20T02:04:10;94549.59;;;2.50
28305;BMP280;15569;42.652;23.040;2022-12-20T02:06:36;94547.41;;;2.67
28305;BMP280;15569;42.652;23.040;2022-12-20T02:09:03;94543.56;;;2.44
28305;BMP280;15569;42.652;23.040;2022-12-20T02:11:52;94538.31;;;2.57
28305;BMP280;15569;42.652;23.040;2022-12-20T02:17:20;94540.56;;;2.66
28305;BMP280;15569;42.652;23.040;2022-12-20T02:30:38;94535.53;;;2.44
28305;BMP280;15569;42.652;23.040;2022-12-20T02:33:10;94535.59;;;2.38
28305;BMP280;15569;42.652;23.040;2022-12-20T02:35:37;94534.06;;;2.43
28305;BMP280;15569;42.652;23.040;2022-12-20T02:40:59;94535.66;;;2.33
28305;BMP280;15569;42.652;23.040;2022-12-20T02:43:27;94529.69;;;2.26
28305;BMP280;15569;42.652;23.040;2022-12-20T02:46:14;94529.84;;;2.28
28305;BMP280;15569;42.652;23.040;2022-12-20T02:48:40;94510.72;;;2.19
28305;BMP280;15569;42.652;23.040;2022-12-20T02:51:07;94521.09;;;2.28
28305;BMP280;15569;42.652;23.040;2022-12-20T02:53:35;94514.59;;;2.23
28305;BMP280;15569;42.652;23.040;2022-12-20T02:56:07;94519.66;;;2.27
28305;BMP280;15569;42.652;23.040;2022-12-20T02:58:53;94512.97;;;2.15
28305;BMP280;15569;42.652;23.040;2022-12-20T03:01:26;94496.84;;;1.96
28305;BMP280;15569;42.652;23.040;2022-12-20T03:03:53;94509.47;;;2.01
28305;BMP280;15569;42.652;23.040;2022-12-20T03:06:19;94512.22;;;1.96
28305;BMP280;15569;42.652;23.040;2022-12-20T03:08:45;94484.78;;;1.65
28305;BMP280;15569;42.652;23.040;2022-12-20T03:11:11;94507.22;;;1.62
28305;BMP280;15569;42.652;23.040;2022-12-20T03:13:37;94502.53;;;1.68
28305;BMP280;15569;42.652;23.040;2022-12-20T03:16:02;94513.44;;;1.52
28305;BMP280;15569;42.652;23.040;2022-12-20T03:18:28;94512.28;;;1.42
28305;BMP280;15569;42.652;23.040;2022-12-20T03:20:53;94511.13;;;1.61
28305;BMP280;15569;42.652;23.040;2022-12-20T03:23:19;94519.41;;;1.63
28305;BMP280;15569;42.652;23.040;2022-12-20T03:25:46;94503.66;;;1.54
28305;BMP280;15569;42.652;23.040;2022-12-20T03:28:11;94512.91;;;1.53
28305;BMP280;15569;42.652;23.040;2022-12-20T03:30:37;94522.22;;;1.47
28305;BMP280;15569;42.652;23.040;2022-12-20T03:33:02;94519.28;;;1.50
28305;BMP280;15569;42.652;23.040;2022-12-20T03:35:27;94503.88;;;1.32
28305;BMP280;15569;42.652;23.040;2022-12-20T03:37:53;94515.16;;;1.25
28305;BMP280;15569;42.652;23.040;2022-12-20T03:40:19;94504.47;;;1.20
28305;BMP280;15569;42.652;23.040;2022-12-20T03:42:45;94513.47;;;1.22
28305;BMP280;15569;42.652;23.040;2022-12-20T03:45:10;94519.06;;;1.24
28305;BMP280;15569;42.652;23.040;2022-12-20T03:47:36;94516.78;;;1.04
28305;BMP280;15569;42.652;23.040;2022-12-20T03:50:01;94512.53;;;0.84
28305;BMP280;15569;42.652;23.040;2022-12-20T03:52:27;94526.06;;;0.97
28305;BMP280;15569;42.652;23.040;2022-12-20T03:54:52;94522.34;;;1.06
28305;BMP280;15569;42.652;23.040;2022-12-20T03:57:18;94512.72;;;0.92
28305;BMP280;15569;42.652;23.040;2022-12-20T03:59:43;94520.81;;;0.86
28305;BMP280;15569;42.652;23.040;2022-12-20T04:02:09;94503.53;;;0.82
28305;BMP280;15569;42.652;23.040;2022-12-20T04:04:34;94506.44;;;0.89
28305;BMP280;15569;42.652;23.040;2022-12-20T04:06:59;94517.19;;;0.78
28305;BMP280;15569;42.652;23.040;2022-12-20T04:09:25;94509.47;;;0.69
28305;BMP280;15569;42.652;23.040;2022-12-20T04:11:50;94513.66;;;0.59
28305;BMP280;15569;42.652;23.040;2022-12-20T04:14:16;94513.41;;;0.57
28305;BMP280;15569;42.652;23.040;2022-12-20T04:16:41;94509.06;;;0.60
28305;BMP280;15569;42.652;23.040;2022-12-20T04:19:06;94504.25;;;0.47
28305;BMP280;15569;42.652;23.040;2022-12-20T04:21:33;94507.38;;;0.51
28305;BMP280;15569;42.652;23.040;2022-12-20T04:24:00;94514.47;;;0.43
28305;BMP280;15569;42.652;23.040;2022-12-20T04:26:26;94509.22;;;0.32
28305;BMP280;15569;42.652;23.040;2022-12-20T04:28:52;94493.00;;;0.19
28305;BMP280;15569;42.652;23.040;2022-12-20T04:31:18;94501.72;;;0.25
28305;BMP280;15569;42.652;23.040;2022-12-20T04:33:44;94502.91;;;0.29
28305;BMP280;15569;42.652;23.040;2022-12-20T04:36:09;94493.59;;;0.41
28305;BMP280;15569;42.652;23.040;2022-12-20T04:38:35;94490.66;;;0.39
28305;BMP280;15569;42.652;23.040;2022-12-20T04:41:00;94489.88;;;0.50
28305;BMP280;15569;42.652;23.040;2022-12-20T04:43:26;94485.28;;;0.45
28305;BMP280;15569;42.652;23.040;2022-12-20T04:45:53;94492.22;;;0.29
28305;BMP280;15569;42.652;23.040;2022-12-20T04:48:21;94485.00;;;0.13
28305;BMP280;15569;42.652;23.040;2022-12-20T04:50:49;94493.94;;;0.27
28305;BMP280;15569;42.652;23.040;2022-12-20T04:53:15;94468.91;;;0.19
28305;BMP280;15569;42.652;23.040;2022-12-20T04:55:59;94493.38;;;0.34
28305;BMP280;15569;42.652;23.040;2022-12-20T04:58:24;94470.44;;;0.09
28305;BMP280;15569;42.652;23.040;2022-12-20T05:00:50;94481.88;;;0.04
28305;BMP280;15569;42.652;23.040;2022-12-20T05:03:18;94485.09;;;-0.09
28305;BMP280;15569;42.652;23.040;2022-12-20T05:05:43;94499.16;;;-0.09
28305;BMP280;15569;42.652;23.040;2022-12-20T05:08:08;94498.16;;;0.06
28305;BMP280;15569;42.652;23.040;2022-12-20T05:10:34;94495.50;;;-0.06
28305;BMP280;15569;42.652;23.040;2022-12-20T05:12:59;94491.63;;;-0.05
28305;BMP280;15569;42.652;23.040;2022-12-20T05:15:25;94482.13;;;0.06
28305;BMP280;15569;42.652;23.040;2022-12-20T05:17:50;94496.94;;;0.01
28305;BMP280;15569;42.652;23.040;2022-12-20T05:20:16;94481.41;;;-0.01
28305;BMP280;15569;42.652;23.040;2022-12-20T05:22:41;94501.53;;;0.12
28305;BMP280;15569;42.652;23.040;2022-12-20T05:25:25;94493.13;;;-0.09
28305;BMP280;15569;42.652;23.040;2022-12-20T05:28:09;94507.59;;;0.18
28305;BMP280;15569;42.652;23.040;2022-12-20T05:30:34;94499.09;;;0.14
28305;BMP280;15569;42.652;23.040;2022-12-20T05:33:00;94491.06;;;0.14
28305;BMP280;15569;42.652;23.040;2022-12-20T05:35:25;94508.31;;;0.13
28305;BMP280;15569;42.652;23.040;2022-12-20T05:37:51;94514.47;;;-0.04
28305;BMP280;15569;42.652;23.040;2022-12-20T05:40:17;94504.47;;;0.08
28305;BMP280;15569;42.652;23.040;2022-12-20T05:42:42;94516.59;;;0.09
28305;BMP280;15569;42.652;23.040;2022-12-20T05:45:09;94512.47;;;0.14
28305;BMP280;15569;42.652;23.040;2022-12-20T05:47:35;94511.50;;;0.11
28305;BMP280;15569;42.652;23.040;2022-12-20T05:50:01;94510.53;;;0.09
28305;BMP280;15569;42.652;23.040;2022-12-20T05:52:28;94517.53;;;0.23
28305;BMP280;15569;42.652;23.040;2022-12-20T05:54:53;94508.69;;;-0.19
28305;BMP280;15569;42.652;23.040;2022-12-20T05:57:19;94519.06;;;0.02
28305;BMP280;15569;42.652;23.040;2022-12-20T05:59:44;94514.91;;;0.12
28305;BMP280;15569;42.652;23.040;2022-12-20T06:02:09;94517.06;;;0.19
28305;BMP280;15569;42.652;23.040;2022-12-20T06:04:36;94498.81;;;0.23
28305;BMP280;15569;42.652;23.040;2022-12-20T06:07:02;94514.34;;;0.30
28305;BMP280;15569;42.652;23.040;2022-12-20T06:09:29;94515.63;;;0.12
28305;BMP280;15569;42.652;23.040;2022-12-20T06:11:54;94506.59;;;0.21
28305;BMP280;15569;42.652;23.040;2022-12-20T06:14:20;94511.19;;;0.26
28305;BMP280;15569;42.652;23.040;2022-12-20T06:16:45;94501.50;;;0.17
28305;BMP280;15569;42.652;23.040;2022-12-20T06:19:11;94499.63;;;0.01
28305;BMP280;15569;42.652;23.040;2022-12-20T06:21:36;94494.06;;;-0.01
28305;BMP280;15569;42.652;23.040;2022-12-20T06:24:02;94501.63;;;-0.11
28305;BMP280;15569;42.652;23.040;2022-12-20T06:26:27;94503.53;;;0.00
28305;BMP280;15569;42.652;23.040;2022-12-20T06:29:00;94500.56;;;0.09
28305;BMP280;15569;42.652;23.040;2022-12-20T06:31:26;94502.97;;;0.13
28305;BMP280;15569;42.652;23.040;2022-12-20T06:33:51;94502.94;;;0.18
28305;BMP280;15569;42.652;23.040;2022-12-20T06:36:18;94484.69;;;0.28
28305;BMP280;15569;42.652;23.040;2022-12-20T06:38:43;94499.81;;;0.55
28305;BMP280;15569;42.652;23.040;2022-12-20T06:41:09;94494.28;;;0.42
28305;BMP280;15569;42.652;23.040;2022-12-20T06:43:34;94496.44;;;0.49
28305;BMP280;15569;42.652;23.040;2022-12-20T06:45:59;94488.91;;;0.53
28305;BMP280;15569;42.652;23.040;2022-12-20T06:48:25;94489.72;;;0.72
28305;BMP280;15569;42.652;23.040;2022-12-20T06:50:50;94468.22;;;0.53
28305;BMP280;15569;42.652;23.040;2022-12-20T06:53:15;94497.53;;;0.70
28305;BMP280;15569;42.652;23.040;2022-12-20T06:55:41;94484.94;;;0.65
28305;BMP280;15569;42.652;23.040;2022-12-20T06:58:07;94487.56;;;0.71
28305;BMP280;15569;42.652;23.040;2022-12-20T07:00:32;94485.34;;;0.75
28305;BMP280;15569;42.652;23.040;2022-12-20T07:02:57;94477.88;;;0.97
28305;BMP280;15569;42.652;23.040;2022-12-20T07:05:23;94487.06;;;1.07
28305;BMP280;15569;42.652;23.040;2022-12-20T07:07:49;94478.25;;;1.12
28305;BMP280;15569;42.652;23.040;2022-12-20T07:10:14;94481.94;;;1.34
28305;BMP280;15569;42.652;23.040;2022-12-20T07:12:40;94467.41;;;1.24
28305;BMP280;15569;42.652;23.040;2022-12-20T07:15:06;94491.75;;;1.50
28305;BMP280;15569;42.652;23.040;2022-12-20T07:17:32;94485.38;;;1.53
28305;BMP280;15569;42.652;23.040;2022-12-20T07:19:57;94496.78;;;1.59
28305;BMP280;15569;42.652;23.040;2022-12-20T07:22:23;94477.81;;;1.57
28305;BMP280;15569;42.652;23.040;2022-12-20T07:24:48;94484.78;;;1.65
28305;BMP280;15569;42.652;23.040;2022-12-20T07:27:14;94487.97;;;1.64
28305;BMP280;15569;42.652;23.040;2022-12-20T07:29:40;94489.53;;;1.54
28305;BMP280;15569;42.652;23.040;2022-12-20T07:32:06;94482.50;;;1.51
28305;BMP280;15569;42.652;23.040;2022-12-20T07:34:32;94488.44;;;1.38
28305;BMP280;15569;42.652;23.040;2022-12-20T07:36:57;94488.34;;;1.49
28305;BMP280;15569;42.652;23.040;2022-12-20T07:39:23;94482.31;;;1.67
28305;BMP280;15569;42.652;23.040;2022-12-20T07:41:52;94479.25;;;1.82
28305;BMP280;15569;42.652;23.040;2022-12-20T07:44:18;94472.78;;;1.48
28305;BMP280;15569;42.652;23.040;2022-12-20T07:46:43;94475.84;;;1.82
28305;BMP280;15569;42.652;23.040;2022-12-20T07:49:09;94471.03;;;1.93
28305;BMP280;15569;42.652;23.040;2022-12-20T07:51:37;94464.22;;;1.92
28305;BMP280;15569;42.652;23.040;2022-12-20T07:54:09;94473.22;;;2.13
28305;BMP280;15569;42.652;23.040;2022-12-20T07:56:38;94472.66;;;2.02
28305;BMP280;15569;42.652;23.040;2022-12-20T07:59:05;94473.09;;;2.24
28305;BMP280;15569;42.652;23.040;2022-12-20T08:01:31;94475.78;;;2.24
28305;BMP280;15569;42.652;23.040;2022-12-20T08:04:03;94474.78;;;2.09
28305;BMP280;15569;42.652;23.040;2022-12-20T08:06:30;94449.81;;;2.14
28305;BMP280;15569;42.652;23.040;2022-12-20T08:08:58;94473.72;;;2.30
28305;BMP280;15569;42.652;23.040;2022-12-20T08:11:24;94462.19;;;1.80
28305;BMP280;15569;42.652;23.040;2022-12-20T08:13:51;94470.31;;;1.50
28305;BMP280;15569;42.652;23.040;2022-12-20T08:16:17;94466.91;;;1.92
28305;BMP280;15569;42.652;23.040;2022-12-20T08:18:42;94467.56;;;1.80
28305;BMP280;15569;42.652;23.040;2022-12-20T08:21:07;94468.53;;;1.58
28305;BMP280;15569;42.652;23.040;2022-12-20T08:23:33;94469.16;;;1.69
28305;BMP280;15569;42.652;23.040;2022-12-20T08:26:00;94461.00;;;1.56
28305;BMP280;15569;42.652;23.040;2022-12-20T08:28:25;94464.28;;;1.87
28305;BMP280;15569;42.652;23.040;2022-12-20T08:30:51;94433.56;;;1.88
28305;BMP280;15569;42.652;23.040;2022-12-20T08:33:16;94457.56;;;1.80
28305;BMP280;15569;42.652;23.040;2022-12-20T08:35:42;94450.09;;;1.92
28305;BMP280;15569;42.652;23.040;2022-12-20T08:38:07;94457.06;;;2.00
28305;BMP280;15569;42.652;23.040;2022-12-20T08:40:32;94458.16;;;2.10
28305;BMP280;15569;42.652;23.040;2022-12-20T08:42:58;94452.94;;;1.99
28305;BMP280;15569;42.652;23.040;2022-12-20T08:45:23;94451.28;;;2.15
28305;BMP280;15569;42.652;23.040;2022-12-20T08:47:49;94460.13;;;2.60
28305;BMP280;15569;42.652;23.040;2022-12-20T08:50:14;94453.34;;;2.59
28305;BMP280;15569;42.652;23.040;2022-12-20T08:52:40;94460.75;;;2.66
28305;BMP280;15569;42.652;23.040;2022-12-20T08:55:05;94444.75;;;2.61
28305;BMP280;15569;42.652;23.040;2022-12-20T08:57:31;94448.53;;;2.52
28305;BMP280;15569;42.652;23.040;2022-12-20T08:59:56;94443.00;;;2.13
28305;BMP280;15569;42.652;23.040;2022-12-20T09:02:22;94443.69;;;2.51
28305;BMP280;15569;42.652;23.040;2022-12-20T09:04:47;94448.66;;;2.60
28305;BMP280;15569;42.652;23.040;2022-12-20T09:07:12;94443.28;;;2.28
28305;BMP280;15569;42.652;23.040;2022-12-20T09:09:38;94453.50;;;1.92
28305;BMP280;15569;42.652;23.040;2022-12-20T09:12:04;94418.88;;;1.76
28305;BMP280;15569;42.652;23.040;2022-12-20T09:14:29;94425.13;;;2.66
28305;BMP280;15569;42.652;23.040;2022-12-20T09:16:54;94435.06;;;3.16
28305;BMP280;15569;42.652;23.040;2022-12-20T09:19:20;94438.19;;;3.46
28305;BMP280;15569;42.652;23.040;2022-12-20T09:21:45;94419.66;;;3.42
28305;BMP280;15569;42.652;23.040;2022-12-20T09:24:11;94421.19;;;3.64
28305;BMP280;15569;42.652;23.040;2022-12-20T09:26:36;94416.72;;;3.53
28305;BMP280;15569;42.652;23.040;2022-12-20T09:29:02;94417.34;;;4.06
28305;BMP280;15569;42.652;23.040;2022-12-20T09:31:28;94408.66;;;4.34
28305;BMP280;15569;42.652;23.040;2022-12-20T09:33:55;94411.22;;;4.60
28305;BMP280;15569;42.652;23.040;2022-12-20T09:36:23;94410.56;;;4.67
28305;BMP280;15569;42.652;23.040;2022-12-20T09:38:49;94403.53;;;4.64
28305;BMP280;15569;42.652;23.040;2022-12-20T09:41:24;94395.38;;;4.78
28305;BMP280;15569;42.652;23.040;2022-12-20T09:43:50;94405.63;;;4.58
28305;BMP280;15569;42.652;23.040;2022-12-20T10:02:15;94365.19;;;4.51
28305;BMP280;15569;42.652;23.040;2022-12-20T10:04:43;94352.34;;;4.93
28305;BMP280;15569;42.652;23.040;2022-12-20T10:07:34;94351.03;;;5.14
28305;BMP280;15569;42.652;23.040;2022-12-20T10:15:50;94321.97;;;5.20
28305;BMP280;15569;42.652;23.040;2022-12-20T10:21:17;94314.94;;;5.91
28305;BMP280;15569;42.652;23.040;2022-12-20T10:26:39;94304.72;;;6.35
28305;BMP280;15569;42.652;23.040;2022-12-20T10:29:05;94298.91;;;6.61
28305;BMP280;15569;42.652;23.040;2022-12-20T10:31:30;94295.44;;;6.91
28305;BMP280;15569;42.652;23.040;2022-12-20T10:33:55;94294.38;;;6.86
28305;BMP280;15569;42.652;23.040;2022-12-20T10:36:29;94282.69;;;7.23
28305;BMP280;15569;42.652;23.040;2022-12-20T10:39:00;94286.91;;;7.41
28305;BMP280;15569;42.652;23.040;2022-12-20T10:41:32;94270.97;;;7.61
28305;BMP280;15569;42.652;23.040;2022-12-20T10:46:45;94267.22;;;7.73
28305;BMP280;15569;42.652;23.040;2022-12-20T10:51:54;94254.47;;;7.91
28305;BMP280;15569;42.652;23.040;2022-12-20T10:54:32;94259.81;;;7.74
28305;BMP280;15569;42.652;23.040;2022-12-20T10:57:00;94257.19;;;7.91
28305;BMP280;15569;42.652;23.040;2022-12-20T10:59:33;94259.09;;;7.98
28305;BMP280;15569;42.652;23.040;2022-12-20T11:02:02;94253.06;;;8.07
28305;BMP280;15569;42.652;23.040;2022-12-20T11:04:56;94245.47;;;8.30
28305;BMP280;15569;42.652;23.040;2022-12-20T11:07:25;94244.47;;;8.18
28305;BMP280;15569;42.652;23.040;2022-12-20T11:09:55;94249.69;;;8.58
28305;BMP280;15569;42.652;23.040;2022-12-20T11:12:21;94234.16;;;8.75
28305;BMP280;15569;42.652;23.040;2022-12-20T11:14:47;94225.78;;;9.08
28305;BMP280;15569;42.652;23.040;2022-12-20T11:30:57;94215.75;;;11.26
28305;BMP280;15569;42.652;23.040;2022-12-20T11:38:54;94212.31;;;11.66
28305;BMP280;15569;42.652;23.040;2022-12-20T11:49:21;94191.50;;;14.81
28305;BMP280;15569;42.652;23.040;2022-12-20T11:57:33;94176.69;;;16.08
28305;BMP280;15569;42.652;23.040;2022-12-20T12:00:01;94181.53;;;16.09
28305;BMP280;15569;42.652;23.040;2022-12-20T12:02:32;94178.88;;;16.85
28305;BMP280;15569;42.652;23.040;2022-12-20T12:05:14;94186.78;;;17.73
28305;BMP280;15569;42.652;23.040;2022-12-20T12:07:46;94176.50;;;17.91
28305;BMP280;15569;42.652;23.040;2022-12-20T12:10:19;94171.41;;;18.73
28305;BMP280;15569;42.652;23.040;2022-12-20T12:12:47;94170.63;;;19.08
28305;BMP280;15569;42.652;23.040;2022-12-20T12:15:33;94169.00;;;19.62
28305;BMP280;15569;42.652;23.040;2022-12-20T12:18:13;94168.97;;;20.03
28305;BMP280;15569;42.652;23.040;2022-12-20T12:26:09;94165.44;;;20.69
28305;BMP280;15569;42.652;23.040;2022-12-20T12:28:35;94165.34;;;21.16
28305;BMP280;15569;42.652;23.040;2022-12-20T12:31:08;94172.25;;;21.41
28305;BMP280;15569;42.652;23.040;2022-12-20T12:34:04;94163.44;;;22.06
28305;BMP280;15569;42.652;23.040;2022-12-20T12:39:29;94165.03;;;22.15
28305;BMP280;15569;42.652;23.040;2022-12-20T12:42:58;94168.34;;;22.39
28305;BMP280;15569;42.652;23.040;2022-12-20T12:45:05;94159.34;;;22.38
28305;BMP280;15569;42.652;23.040;2022-12-20T12:47:44;94157.72;;;22.27
28305;BMP280;15569;42.652;23.040;2022-12-20T12:50:23;94155.25;;;22.43
28305;BMP280;15569;42.652;23.040;2022-12-20T12:52:54;94160.59;;;22.65
28305;BMP280;15569;42.652;23.040;2022-12-20T12:55:42;94151.78;;;23.12
28305;BMP280;15569;42.652;23.040;2022-12-20T12:58:30;94153.22;;;23.13
28305;BMP280;15569;42.652;23.040;2022-12-20T13:01:45;94145.97;;;22.62
28305;BMP280;15569;42.652;23.040;2022-12-20T13:11:40;94143.56;;;22.47
28305;BMP280;15569;42.652;23.040;2022-12-20T13:19:16;94131.50;;;23.02
28305;BMP280;15569;42.652;23.040;2022-12-20T13:21:46;94137.34;;;22.15
28305;BMP280;15569;42.652;23.040;2022-12-20T13:40:39;94121.16;;;22.03
28305;BMP280;15569;42.652;23.040;2022-12-20T13:43:36;94122.75;;;22.12
28305;BMP280;15569;42.652;23.040;2022-12-20T13:51:03;94124.75;;;22.10
28305;BMP280;15569;42.652;23.040;2022-12-20T13:53:29;94123.09;;;21.97
28305;BMP280;15569;42.652;23.040;2022-12-20T13:55:55;94116.69;;;21.05
28305;BMP280;15569;42.652;23.040;2022-12-20T14:00:51;94107.72;;;21.34
28305;BMP280;15569;42.652;23.040;2022-12-20T14:03:28;94106.84;;;21.00
28305;BMP280;15569;42.652;23.040;2022-12-20T14:06:00;94104.84;;;19.83
28305;BMP280;15569;42.652;23.040;2022-12-20T14:08:35;94105.44;;;20.48
28305;BMP280;15569;42.652;23.040;2022-12-20T14:13:53;94085.09;;;19.06
28305;BMP280;15569;42.652;23.040;2022-12-20T14:16:19;94102.88;;;17.56
28305;BMP280;15569;42.652;23.040;2022-12-20T14:19:34;94099.19;;;17.16
28305;BMP280;15569;42.652;23.040;2022-12-20T14:21:36;94104.06;;;15.95
28305;BMP280;15569;42.652;23.040;2022-12-20T14:24:04;94098.63;;;15.25
28305;BMP280;15569;42.652;23.040;2022-12-20T14:26:41;94094.13;;;14.64
28305;BMP280;15569;42.652;23.040;2022-12-20T14:29:15;94092.16;;;13.78
28305;BMP280;15569;42.652;23.040;2022-12-20T14:31:43;94088.34;;;13.46
28305;BMP280;15569;42.652;23.040;2022-12-20T14:36:36;94088.06;;;11.94
28305;BMP280;15569;42.652;23.040;2022-12-20T14:44:34;94091.09;;;10.54
28305;BMP280;15569;42.652;23.040;2022-12-20T14:47:11;94078.75;;;9.93
28305;BMP280;15569;42.652;23.040;2022-12-20T14:49:38;94081.84;;;9.61
28305;BMP280;15569;42.652;23.040;2022-12-20T14:55:44;94087.31;;;8.79
28305;BMP280;15569;42.652;23.040;2022-12-20T14:57:55;94074.78;;;8.30
28305;BMP280;15569;42.652;23.040;2022-12-20T15:00:25;94090.22;;;7.93
28305;BMP280;15569;42.652;23.040;2022-12-20T15:03:16;94085.56;;;7.86
28305;BMP280;15569;42.652;23.040;2022-12-20T15:05:47;94090.41;;;7.54
28305;BMP280;15569;42.652;23.040;2022-12-20T15:13:40;94080.75;;;6.94
28305;BMP280;15569;42.652;23.040;2022-12-20T15:16:15;94087.00;;;6.79
28305;BMP280;15569;42.652;23.040;2022-12-20T15:18:41;94071.97;;;6.61
28305;BMP280;15569;42.652;23.040;2022-12-20T15:21:23;94087.94;;;6.66
28305;BMP280;15569;42.652;23.040;2022-12-20T15:23:52;94081.41;;;6.45
28305;BMP280;15569;42.652;23.040;2022-12-20T15:26:21;94081.75;;;6.49
28305;BMP280;15569;42.652;23.040;2022-12-20T15:28:47;94083.50;;;6.14
28305;BMP280;15569;42.652;23.040;2022-12-20T15:31:15;94079.59;;;6.07
28305;BMP280;15569;42.652;23.040;2022-12-20T15:33:42;94071.56;;;5.77
28305;BMP280;15569;42.652;23.040;2022-12-20T15:36:19;94079.69;;;5.70
28305;BMP280;15569;42.652;23.040;2022-12-20T15:38:45;94072.47;;;5.65
28305;BMP280;15569;42.652;23.040;2022-12-20T15:41:31;94067.06;;;5.80
28305;BMP280;15569;42.652;23.040;2022-12-20T15:43:59;94065.63;;;5.71
28305;BMP280;15569;42.652;23.040;2022-12-20T15:46:26;94064.03;;;5.68
28305;BMP280;15569;42.652;23.040;2022-12-20T15:48:52;94062.00;;;5.76
28305;BMP280;15569;42.652;23.040;2022-12-20T15:51:29;94058.66;;;5.38
28305;BMP280;15569;42.652;23.040;2022-12-20T15:53:55;94068.34;;;5.11
28305;BMP280;15569;42.652;23.040;2022-12-20T15:56:22;94070.63;;;4.61
28305;BMP280;15569;42.652;23.040;2022-12-20T15:58:48;94071.59;;;4.94
28305;BMP280;15569;42.652;23.040;2022-12-20T16:01:26;94075.00;;;4.95
28305;BMP280;15569;42.652;23.040;2022-12-20T16:03:53;94064.84;;;4.57
28305;BMP280;15569;42.652;23.040;2022-12-20T16:06:18;94073.88;;;4.67
28305;BMP280;15569;42.652;23.040;2022-12-20T16:08:44;94057.44;;;4.35
28305;BMP280;15569;42.652;23.040;2022-12-20T16:11:23;94078.88;;;4.56
28305;BMP280;15569;42.652;23.040;2022-12-20T16:13:52;94073.47;;;4.56
28305;BMP280;15569;42.652;23.040;2022-12-20T16:16:30;94072.06;;;4.62
28305;BMP280;15569;42.652;23.040;2022-12-20T16:18:55;94077.06;;;4.58
28305;BMP280;15569;42.652;23.040;2022-12-20T16:21:28;94072.94;;;4.57
28305;BMP280;15569;42.652;23.040;2022-12-20T16:23:54;94062.06;;;4.27
28305;BMP280;15569;42.652;23.040;2022-12-20T16:26:21;94075.63;;;4.57
28305;BMP280;15569;42.652;23.040;2022-12-20T16:28:49;94076.50;;;4.45
28305;BMP280;15569;42.652;23.040;2022-12-20T16:33:55;94063.69;;;4.30
28305;BMP280;15569;42.652;23.040;2022-12-20T16:36:21;94060.84;;;4.36
28305;BMP280;15569;42.652;23.040;2022-12-20T16:38:48;94067.59;;;4.22
28305;BMP280;15569;42.652;23.040;2022-12-20T16:41:18;94054.38;;;4.31
28305;BMP280;15569;42.652;23.040;2022-12-20T16:43:44;94055.28;;;4.34
28305;BMP280;15569;42.652;23.040;2022-12-20T16:46:15;94036.84;;;4.02
28305;BMP280;15569;42.652;23.040;2022-12-20T16:48:41;94054.16;;;4.22